Terminal Aerodrome Forecast
Issued by NWS

Current Version | Previous Version | Text Only | Print | Product List | Glossary Off
Versions: 1 2 3 4 5 6 7 8 9 10 11 12 13 14 15 16 17 18 19 20 21

000
FTUS41 KPBZ 190500
TAFHLG
TAF
KHLG 190525Z 1906/2006 32010KT P6SM SCT025 BKN035
     FM191200 29007KT P6SM BKN035
     FM192300 23003KT P6SM SCT040=

USA.gov is the U.S. government's official web portal to all federal, state and local government web resources and services.